Latest Weather Observations for Loxton

IDS60801

Issued at 2:35 pm CDT Saturday 1 November 2014 (issued every 30 minutes, with the page automatically refreshed every 10 minutes)

About weather observations | Map of weather stations | Latest weather observations for SA | Other Formats
Station Details ID: 024024 Name: LOXTON RESEARCH CENTRE Lat: -34.44 Lon: 140.60 Height: 30.1 m
Data from the previous 72 hours. | See also: Recent months at Loxton
Date/Time
CDT
Temp
°C
App
Temp
°C
Dew
Point
Rel
Hum
%
Delta-T
°C
Wind Press
QNH
hPa
Press
MSL
hPa
Rain
since 9 am
mm
Dir
 
Spd
km/h
Gust
km/h
Spd
kts
Gust
kts
01/02:30pm 18.9 9.8 -7.5 16 9.9 SW 33 52 18 28 1015.6 1015.5 0.0
01/02:00pm 18.9 10.4 -1.7 24 8.7 SW 33 59 18 32 1015.4 1015.3 0.0
01/01:30pm 18.6 9.5 -0.3 28 8.2 SW 37 57 20 31 1015.3 1015.2 0.0
01/01:24pm 19.2 10.6 0.1 27 8.4 SW 35 54 19 29 1015.3 1015.2 0.0
01/01:00pm 19.1 10.9 0.3 28 8.3 WSW 33 48 18 26 1015.0 1014.9 0.0
01/12:33pm 17.9 9.7 0.2 30 7.7 SW 33 54 18 29 1014.8 1014.7 0.0
01/12:30pm 18.1 9.8 -0.1 29 7.9 SW 33 46 18 25 1014.8 1014.7 0.0
01/12:00pm 18.4 9.9 0.8 30 7.8 SW 35 54 19 29 1014.5 1014.4 0.0
01/11:46am 18.3 9.3 -0.1 29 8.0 SW 37 57 20 31 1014.5 1014.4 0.0
01/11:30am 17.7 9.9 2.0 35 7.1 SW 32 46 17 25 1014.5 1014.4 0.0
01/11:00am 17.1 9.0 3.2 39 6.4 SW 35 50 19 27 1014.4 1014.3 0.0
01/10:36am 16.3 9.1 5.2 47 5.3 WSW 32 61 17 33 1014.1 1014.0 0.0
01/10:30am 17.6 10.2 4.8 42 6.1 WSW 33 50 18 27 1014.0 1013.9 0.0
01/10:00am 16.6 9.8 5.3 47 5.4 SW 30 54 16 29 1013.7 1013.6 0.0
01/09:43am 16.4 9.6 5.3 47 5.3 SW 30 48 16 26 1013.4 1013.3 0.0
01/09:30am 16.5 9.4 5.5 48 5.3 SW 32 44 17 24 1013.1 1013.0 0.0
01/09:11am 15.6 9.2 5.0 49 5.0 SW 28 46 15 25 1013.0 1012.9 0.0
01/09:00am 15.6 10.0 5.3 50 4.9 SW 24 41 13 22 1012.6 1012.6 0.8
01/08:30am 15.4 10.0 8.0 61 3.7 SW 26 44 14 24 1012.1 1012.1 -
01/08:00am 14.3 8.9 8.1 66 3.1 SW 26 35 14 19 1011.7 1011.7 -
01/07:30am 13.5 8.0 9.2 75 2.2 SW 28 39 15 21 1011.0 1011.0 -
01/06:30am 13.2 7.5 11.3 88 1.0 SW 32 46 17 25 1009.5 1009.5 -
01/06:13am 13.5 8.8 12.0 91 0.8 SW 28 54 15 29 1008.9 1008.9 -
01/06:00am 14.2 10.6 12.0 87 1.2 WSW 22 35 12 19 1008.4 1008.4 -
01/05:30am 15.1 11.9 11.2 77 2.1 WSW 19 28 10 15 1007.7 1007.7 -
01/05:00am 15.1 12.8 11.8 81 1.8 WSW 15 20 8 11 1006.9 1006.9 -
01/04:30am 15.1 12.9 12.0 82 1.7 WSW 15 22 8 12 1006.5 1006.5 -
01/04:00am 15.2 13.3 12.9 86 1.3 SW 15 20 8 11 1006.4 1006.4 -
01/03:30am 15.1 12.8 13.1 88 1.1 SW 17 26 9 14 1006.0 1006.0 -
01/03:00am 15.4 11.6 12.5 83 1.6 SW 24 35 13 19 1005.6 1005.6 -
01/02:30am 15.5 12.6 12.8 84 1.5 SW 20 28 11 15 1005.5 1005.5 -
01/01:30am 15.5 15.1 13.0 85 1.4 WNW 7 11 4 6 1005.7 1005.7 0.2
01/01:00am 15.6 14.7 12.7 83 1.6 WSW 9 15 5 8 1005.1 1005.1 0.2
01/12:30am 16.2 13.8 12.6 79 2.0 WSW 17 26 9 14 1005.3 1005.3 0.0
01/12:00am 17.5 14.2 10.8 65 3.6 SW 19 32 10 17 1003.9 1003.9 0.0
 
Date/Time
CDT
Temp
°C
App
Temp
°C
Dew
Point
Rel
Hum
%
Delta-T
°C
Wind Press
QNH
hPa
Press
MSL
hPa
Rain
since 9 am
mm
Dir
 
Spd
km/h
Gust
km/h
Spd
kts
Gust
kts
31/11:30pm 17.6 12.7 11.2 66 3.5 SW 28 41 15 22 1004.1 1004.1 0.0
31/11:00pm 17.5 12.8 12.1 70 3.0 SW 28 41 15 22 1004.0 1004.0 0.0
31/10:30pm 17.7 11.5 12.5 71 2.9 SW 37 59 20 32 1003.9 1003.9 0.0
31/10:25pm 17.8 12.4 12.8 72 2.8 SW 33 54 18 29 1004.1 1004.1 0.0
31/10:00pm 18.6 13.4 13.3 71 3.0 SSW 33 50 18 27 1003.3 1003.3 0.0
31/09:37pm 20.4 14.9 12.4 60 4.5 SW 33 52 18 28 1002.9 1002.9 0.0
31/09:30pm 21.3 16.6 11.9 55 5.3 SW 28 44 15 24 1002.5 1002.5 0.0
31/09:00pm 25.6 19.6 7.1 30 9.8 SW 28 43 15 23 1001.3 1001.3 0.0
31/08:35pm 26.7 20.3 5.1 25 11.0 WSW 28 46 15 25 1001.3 1001.3 0.0
31/08:30pm 26.9 20.7 4.5 23 11.4 WSW 26 35 14 19 1001.1 1001.1 0.0
31/08:00pm 27.7 19.1 4.8 23 11.7 SW 39 61 21 33 999.4 999.4 0.0
31/07:55pm 28.2 18.7 3.8 21 12.3 SW 43 61 23 33 999.0 999.0 0.0
31/07:50pm 29.6 19.9 3.1 18 13.3 SW 43 59 23 32 998.7 998.7 0.0
31/07:30pm 32.5 29.1 2.1 14 15.4 NNW 9 13 5 7 997.7 997.7 0.0
31/07:00pm 33.2 29.7 1.0 13 16.0 N 9 15 5 8 997.6 997.6 0.0
31/06:30pm 34.4 29.3 0.7 12 16.9 NNW 17 26 9 14 997.5 997.5 0.0
31/06:00pm 35.0 30.1 -0.4 10 17.5 NNW 15 28 8 15 997.7 997.7 0.0
31/05:30pm 35.5 29.5 -1.4 9 18.0 NNW 20 30 11 16 998.0 998.0 0.0
31/05:00pm 36.0 28.7 -3.0 8 18.5 NW 26 41 14 22 998.3 998.3 0.0
31/04:30pm 36.4 29.5 -2.8 8 18.8 NNW 24 37 13 20 998.9 998.9 0.0
31/04:00pm 35.3 29.3 -1.6 9 17.8 NNW 20 35 11 19 999.4 999.4 0.0
31/03:30pm 35.7 29.0 -1.4 9 18.1 NNW 24 37 13 20 1000.1 1000.1 0.0
31/03:09pm 34.9 27.1 -4.0 8 18.0 NNW 28 46 15 25 1000.7 1000.7 0.0
31/03:00pm 35.2 27.2 -2.4 9 18.0 NNW 30 39 16 21 1000.9 1000.9 0.0
31/02:30pm 36.1 28.9 -2.2 8 18.5 NNW 26 46 14 25 1001.2 1001.2 0.0
31/02:00pm 34.9 27.4 -1.4 10 17.5 NNW 28 48 15 26 1002.2 1002.2 0.0
31/01:30pm 33.2 25.2 -2.0 10 16.7 NNW 30 50 16 27 1002.9 1002.9 0.0
31/01:05pm 33.1 25.2 -4.5 8 17.0 NNW 28 46 15 25 1003.5 1003.5 0.0
31/01:00pm 33.3 26.0 -2.7 10 16.8 NNW 26 43 14 23 1003.5 1003.5 0.0
31/12:30pm 32.4 25.6 -1.9 11 16.2 NNW 24 41 13 22 1004.0 1004.0 0.0
31/12:00pm 31.4 24.9 -2.3 11 15.7 N 22 39 12 21 1004.6 1004.6 0.0
31/11:30am 30.6 25.0 -0.3 13 14.8 N 19 26 10 14 1004.9 1004.9 0.0
31/11:00am 30.1 24.5 1.4 16 14.1 N 20 28 11 15 1005.3 1005.3 0.0
31/10:30am 27.9 22.8 3.0 20 12.4 NNE 19 28 10 15 1005.7 1005.7 0.0
31/10:00am 27.1 21.5 0.9 18 12.5 NE 20 33 11 18 1006.3 1006.3 0.0
31/09:30am 25.8 20.3 0.4 19 11.9 NNE 19 30 10 16 1006.9 1006.9 0.0
31/09:00am 24.5 19.8 0.7 21 11.1 NNE 15 20 8 11 1007.4 1007.4 0.0
31/08:30am 22.3 17.5 0.3 23 10.0 NNE 15 24 8 13 1007.8 1007.8 0.0
31/08:00am 19.6 16.0 3.0 33 7.8 NE 11 15 6 8 1008.0 1008.0 0.0
31/07:30am 16.4 14.5 5.1 47 5.4 E 4 7 2 4 1008.2 1008.2 0.0
31/07:00am 15.1 13.5 4.4 48 5.0 E 2 9 1 5 1008.4 1008.4 0.0
31/06:30am 14.7 12.1 4.4 50 4.8 E 7 9 4 5 1008.4 1008.4 0.0
31/06:00am 14.7 11.8 4.6 50 4.7 E 9 11 5 6 1008.5 1008.5 0.0
31/05:30am 15.2 12.8 4.5 49 5.0 E 6 7 3 4 1008.8 1008.8 0.0
31/05:00am 14.5 11.1 3.8 48 4.9 E 11 13 6 7 1008.6 1008.6 0.0
31/04:30am 14.3 11.4 4.4 51 4.6 E 9 11 5 6 1008.9 1008.9 0.0
31/04:00am 14.6 12.1 4.5 50 4.7 ESE 7 9 4 5 1009.1 1009.1 0.0
31/03:30am 14.5 11.4 3.8 48 4.9 ESE 9 11 5 6 1009.1 1009.1 0.0
31/03:00am 14.3 11.3 4.1 50 4.7 ESE 9 11 5 6 1009.4 1009.4 0.0
31/02:30am 14.2 11.1 3.7 49 4.8 SE 9 11 5 6 1009.5 1009.5 0.0
31/02:00am 13.2 10.3 4.5 55 4.0 ESE 9 11 5 6 1009.8 1009.8 0.0
31/01:30am 14.0 10.3 2.2 45 5.2 SE 11 13 6 7 1010.2 1010.2 0.0
31/01:00am 14.1 10.6 3.5 49 4.8 SSE 11 13 6 7 1010.8 1010.8 0.0
31/12:30am 14.8 11.6 2.8 44 5.4 SE 9 11 5 6 1011.0 1011.0 0.0
31/12:00am 13.3 10.5 5.2 58 3.8 SE 9 13 5 7 1011.2 1011.2 0.0
 
Date/Time
CDT
Temp
°C
App
Temp
°C
Dew
Point
Rel
Hum
%
Delta-T
°C
Wind Press
QNH
hPa
Press
MSL
hPa
Rain
since 9 am
mm
Dir
 
Spd
km/h
Gust
km/h
Spd
kts
Gust
kts
30/11:30pm 14.6 11.1 3.6 47 5.0 SSE 11 13 6 7 1011.3 1011.3 0.0
30/11:00pm 13.9 10.6 4.6 53 4.3 SSE 11 13 6 7 1011.6 1011.6 0.0
30/10:30pm 14.5 12.0 4.9 52 4.5 SSE 7 9 4 5 1011.8 1011.8 0.0
30/10:00pm 15.3 11.5 3.8 46 5.3 SSE 13 13 7 7 1011.7 1011.7 0.0
30/09:30pm 14.8 12.0 5.0 52 4.6 SSE 9 9 5 5 1011.7 1011.7 0.0
30/09:00pm 16.0 14.0 6.1 52 4.8 S 6 7 3 4 1011.4 1011.4 0.0
30/08:30pm 17.4 15.2 6.2 47 5.5 SSE 7 9 4 5 1011.2 1011.2 0.0
30/08:00pm 19.3 16.8 6.5 43 6.4 SSE 9 11 5 6 1011.2 1011.2 0.0
30/07:59pm 19.4 16.9 6.7 43 6.4 SSE 9 11 5 6 1011.2 1011.2 0.0
30/07:30pm 24.5 21.5 4.1 26 10.1 S 9 11 5 6 1011.0 1011.0 0.0
30/07:00pm 27.3 24.0 2.4 20 12.2 S 9 13 5 7 1011.0 1011.0 0.0
30/06:30pm 28.5 25.3 0.8 16 13.3 SSW 7 11 4 6 1011.1 1011.1 0.0
30/06:00pm 29.5 25.7 -1.0 14 14.3 WSW 9 15 5 8 1011.0 1011.0 0.0
30/05:30pm 29.5 24.6 -3.5 11 14.8 WSW 13 19 7 10 1011.1 1011.1 0.0
30/05:00pm 29.7 24.9 -2.4 12 14.7 W 13 19 7 10 1011.2 1011.2 0.0
30/04:30pm 29.3 24.2 -1.6 13 14.3 WSW 15 20 8 11 1011.4 1011.4 0.0
30/04:00pm 29.5 25.4 -0.2 14 14.1 WSW 11 22 6 12 1011.7 1011.7 0.0
30/03:30pm 28.5 24.7 1.6 17 13.1 WSW 11 19 6 10 1011.9 1011.9 0.0
30/03:00pm 28.7 24.2 2.0 18 13.1 W 15 24 8 13 1012.4 1012.4 0.0
30/02:30pm 27.8 24.3 3.7 21 12.1 W 11 20 6 11 1013.0 1012.9 0.0
30/02:00pm 26.8 23.2 5.1 25 11.1 SW 13 20 7 11 1013.5 1013.4 0.0
30/01:30pm 26.2 24.0 6.2 28 10.4 WSW 7 15 4 8 1013.9 1013.8 0.0
30/01:00pm 25.1 22.6 6.4 30 9.7 S 9 15 5 8 1014.5 1014.4 0.0
30/12:30pm 24.2 21.8 6.9 33 9.0 S 9 20 5 11 1014.9 1014.8 0.0
30/12:00pm 23.0 21.2 8.0 38 7.9 W 7 11 4 6 1015.1 1015.0 0.0
30/11:30am 21.5 19.9 8.1 42 7.0 SSE 6 9 3 5 1015.5 1015.4 0.0
30/11:00am 21.0 18.8 7.9 43 6.8 W 9 13 5 7 1016.2 1016.1 0.0
30/10:30am 21.0 18.5 8.4 44 6.6 SE 11 20 6 11 1016.5 1016.4 0.0
30/10:00am 19.3 17.3 8.8 50 5.5 SSE 9 19 5 10 1016.8 1016.7 0.0
30/09:30am 17.5 15.1 8.8 56 4.5 S 11 19 6 10 1016.9 1016.8 0.0
30/09:00am 17.0 15.9 10.0 63 3.7 ESE 6 13 3 7 1017.0 1016.9 0.0
30/08:30am 15.5 12.9 9.3 66 3.2 SSE 13 19 7 10 1017.0 1016.9 0.0
30/08:00am 14.1 11.1 9.4 73 2.4 SSE 15 19 8 10 1016.9 1016.8 0.0
30/07:30am 12.6 10.8 9.4 81 1.6 SSE 9 13 5 7 1016.5 1016.4 0.0
30/07:00am 11.2 9.7 9.0 86 1.1 S 7 11 4 6 1016.4 1016.3 0.0
30/06:30am 10.3 7.5 8.7 90 0.8 S 13 19 7 10 1016.8 1016.7 0.0
30/06:00am 10.1 7.3 8.7 91 0.7 S 13 15 7 8 1016.3 1016.2 0.0
30/05:30am 9.5 7.7 7.8 89 0.8 S 7 9 4 5 1016.1 1016.0 0.0
30/05:00am 8.9 7.9 7.2 89 0.8 S 2 7 1 4 1015.7 1015.6 0.0
30/04:30am 9.3 7.5 7.2 87 1.0 S 6 9 3 5 1015.8 1015.7 0.0
30/04:00am 9.1 8.1 7.2 88 0.9 SSW 2 7 1 4 1015.8 1015.7 0.0
30/03:30am 9.7 8.8 7.6 87 1.0 SW 2 7 1 4 1015.9 1015.8 0.0
30/03:00am 10.0 9.5 7.9 87 1.0 CALM 0 0 0 0 1016.0 1015.9 0.0
30/02:30am 11.1 10.4 8.5 84 1.3 SSW 2 6 1 3 1016.2 1016.1 0.0
30/02:00am 12.5 11.0 8.5 76 2.0 S 6 9 3 5 1016.4 1016.3 0.0
30/01:30am 13.3 11.3 8.7 73 2.3 S 9 11 5 6 1016.5 1016.4 0.0
30/01:00am 13.4 11.9 9.0 75 2.2 S 7 9 4 5 1016.8 1016.7 0.0
30/12:30am 13.4 12.8 9.0 75 2.2 S 2 6 1 3 1016.8 1016.7 0.0
30/12:00am 15.1 13.2 9.0 67 3.1 S 9 13 5 7 1016.8 1016.7 0.0
 
Date/Time
CDT
Temp
°C
App
Temp
°C
Dew
Point
Rel
Hum
%
Delta-T
°C
Wind Press
QNH
hPa
Press
MSL
hPa
Rain
since 9 am
mm
Dir
 
Spd
km/h
Gust
km/h
Spd
kts
Gust
kts
29/11:30pm 16.0 13.7 9.0 63 3.6 S 11 15 6 8 1016.6 1016.5 0.0
29/11:00pm 16.8 15.3 9.1 60 4.0 S 7 13 4 7 1016.7 1016.6 0.0
29/10:30pm 17.6 14.9 8.9 56 4.5 S 13 17 7 9 1016.3 1016.2 0.0
29/10:00pm 19.0 15.1 8.6 51 5.4 S 19 30 10 16 1016.5 1016.4 0.0
29/09:30pm 20.1 15.6 8.6 47 6.0 SSW 22 32 12 17 1016.2 1016.1 0.0
29/09:00pm 21.4 16.9 8.5 43 6.8 SSW 22 32 12 17 1015.4 1015.3 0.0
29/08:30pm 22.5 17.8 7.8 38 7.7 SW 22 33 12 18 1015.2 1015.1 0.0
29/08:00pm 19.2 18.4 11.1 59 4.4 SSW 6 9 3 5 1014.7 1014.6 0.0
29/07:30pm 20.2 20.7 11.5 57 4.8 CALM 0 0 0 0 1014.5 1014.4 0.0
29/07:00pm 22.7 22.1 10.5 46 6.7 WSW 4 7 2 4 1014.5 1014.4 0.0
29/06:30pm 25.9 25.0 7.7 31 9.7 W 2 6 1 3 1014.4 1014.3 0.0
29/06:00pm 27.8 24.1 2.6 19 12.4 WSW 11 17 6 9 1014.5 1014.4 0.0
29/05:30pm 27.8 25.0 3.4 21 12.2 W 7 13 4 7 1014.5 1014.4 0.0
29/05:00pm 27.4 22.9 2.2 19 12.3 WNW 15 24 8 13 1014.7 1014.6 0.0
29/04:30pm 27.6 24.3 2.2 19 12.4 WNW 9 15 5 8 1014.8 1014.7 0.0
29/04:00pm 26.8 22.8 2.7 21 11.8 NW 13 24 7 13 1015.2 1015.1 0.0
29/03:30pm 26.3 22.2 4.1 24 11.1 WNW 15 26 8 14 1015.6 1015.5 0.0
29/03:00pm 25.1 21.4 4.2 26 10.4 W 13 22 7 12 1016.2 1016.1 0.0

Other Formats:

Comma delimited format used in spreadsheet applications
http://www.bom.gov.au/fwo/IDS60801/IDS60801.94682.axf

JavaScript Object Notation format (JSON) in row-major order
http://www.bom.gov.au/fwo/IDS60801/IDS60801.94682.json